Time;durP1;ratioP1;P1;durP2;ratioP2;P2;SDS_P1;SDS_P2;PMS_P1;PMS_P2;Temp;Humidity;BMP_temperature;BMP_pressure;BME280_temperature;BME280_humidity;BME280_pressure;Samples;Min_cycle;Max_cycle;Signal;HPM_P1;HPM_P2
2023/02/19 00:00:30;;;;;;;1999.90;999.90;;;10.00;99.90;;;;;;5094131;28;20109;-75
2023/02/19 00:02:56;;;;;;;1999.90;999.90;;;10.00;99.90;;;;;;5094119;28;20036;-77
2023/02/19 00:05:22;;;;;;;1999.90;999.90;;;9.90;99.90;;;;;;5094190;28;20023;-81
2023/02/19 00:07:48;;;;;;;1999.90;999.90;;;9.90;99.90;;;;;;5094259;28;20438;-77
2023/02/19 00:10:14;;;;;;;1999.90;999.90;;;9.80;99.90;;;;;;5093941;28;20028;-77
2023/02/19 00:12:39;;;;;;;1999.90;999.90;;;9.90;99.90;;;;;;5093883;28;20020;-81
2023/02/19 00:15:05;;;;;;;1999.90;999.90;;;9.90;99.90;;;;;;5094016;28;20133;-77
2023/02/19 00:17:31;;;;;;;1999.90;999.90;;;9.80;99.90;;;;;;5093466;28;20047;-81
2023/02/19 00:19:57;;;;;;;1999.90;999.90;;;9.80;99.90;;;;;;5093707;28;20028;-81
2023/02/19 00:22:22;;;;;;;1999.90;999.90;;;9.80;99.90;;;;;;5093785;28;20039;-77
2023/02/19 00:24:48;;;;;;;1999.90;999.90;;;9.80;99.90;;;;;;5093779;28;20369;-81
2023/02/19 00:27:14;;;;;;;1999.90;999.90;;;9.80;99.90;;;;;;5093848;28;20480;-77
2023/02/19 00:29:40;;;;;;;1999.90;999.90;;;9.80;99.90;;;;;;5093648;28;20029;-77
2023/02/19 00:32:06;;;;;;;1999.90;999.90;;;9.90;99.90;;;;;;5093659;28;20431;-81
2023/02/19 00:34:31;;;;;;;1999.90;999.90;;;9.80;99.90;;;;;;5093726;28;20032;-77
2023/02/19 00:36:57;;;;;;;1999.90;999.90;;;9.80;99.90;;;;;;5093441;28;20028;-77
2023/02/19 00:39:22;;;;;;;1999.90;999.90;;;9.80;99.90;;;;;;5092837;28;20081;-77
2023/02/19 00:41:48;;;;;;;1999.90;999.90;;;9.80;99.90;;;;;;5093399;28;20020;-77
2023/02/19 00:44:14;;;;;;;1999.90;999.90;;;9.80;99.90;;;;;;5093408;28;20024;-77
2023/02/19 00:46:45;;;;;;;1999.90;999.90;;;9.80;99.90;;;;;;5091301;28;20484;-77
2023/02/19 00:49:22;;;;;;;1999.90;999.90;;;9.80;99.90;;;;;;5093388;28;20028;-81
2023/02/19 00:51:50;;;;;;;1999.90;999.90;;;9.80;99.90;;;;;;5093265;28;20107;-77
2023/02/19 00:54:16;;;;;;;1999.90;999.90;;;9.80;99.90;;;;;;5093016;28;20139;-77
2023/02/19 00:56:42;;;;;;;1999.90;999.90;;;9.80;99.90;;;;;;5093075;28;20016;-77
2023/02/19 00:59:07;;;;;;;1999.90;999.90;;;9.80;99.90;;;;;;5092975;28;20044;-81
2023/02/19 01:01:33;;;;;;;1999.90;999.90;;;9.80;99.90;;;;;;5093363;28;20069;-77
2023/02/19 01:03:59;;;;;;;1999.90;999.90;;;9.80;99.90;;;;;;5092891;28;20073;-77
2023/02/19 01:06:24;;;;;;;1999.90;999.90;;;9.80;99.90;;;;;;5092929;28;20028;-77
2023/02/19 01:08:50;;;;;;;1999.90;999.90;;;9.80;99.90;;;;;;5092869;28;20040;-81
2023/02/19 01:11:16;;;;;;;1999.90;999.90;;;9.80;99.90;;;;;;5092976;28;20031;-80
2023/02/19 01:13:43;;;;;;;1999.90;999.90;;;9.80;99.90;;;;;;5092921;28;20060;-77
2023/02/19 01:16:14;;;;;;;1999.90;999.90;;;9.80;99.90;;;;;;5090976;28;20040;-77
2023/02/19 01:18:41;;;;;;;1999.90;999.90;;;9.80;99.90;;;;;;5091932;28;20026;-77
2023/02/19 01:21:12;;;;;;;1999.90;999.90;;;9.80;99.90;;;;;;5092845;28;20078;-81
2023/02/19 01:23:38;;;;;;;1999.90;999.90;;;9.70;99.90;;;;;;5092748;28;20032;-80
2023/02/19 01:26:11;;;;;;;1999.90;999.90;;;9.80;99.90;;;;;;5092693;28;20644;-77
2023/02/19 01:28:36;;;;;;;1999.90;999.90;;;9.70;99.90;;;;;;5092400;28;20028;-77
2023/02/19 01:31:04;;;;;;;1999.90;999.90;;;9.70;99.90;;;;;;5092522;28;20028;-77
2023/02/19 01:33:29;;;;;;;1999.90;999.90;;;9.70;99.90;;;;;;5092659;28;20485;-77
2023/02/19 01:35:55;;;;;;;1999.90;999.90;;;9.70;99.90;;;;;;5092443;28;20095;-77
2023/02/19 01:38:21;;;;;;;1999.90;999.90;;;9.70;99.90;;;;;;5091940;28;20012;-77
2023/02/19 01:40:57;;;;;;;1999.90;999.90;;;9.70;99.90;;;;;;5092460;28;20439;-77
2023/02/19 01:43:23;;;;;;;1999.90;999.90;;;9.80;99.90;;;;;;5092442;28;20032;-77
2023/02/19 01:45:49;;;;;;;1999.90;999.90;;;9.70;99.90;;;;;;5089985;28;20123;-77
2023/02/19 01:48:29;;;;;;;1999.90;999.90;;;9.70;99.90;;;;;;5092342;28;20099;-77
2023/02/19 01:51:13;;;;;;;1999.90;999.90;;;9.70;99.90;;;;;;5090296;28;20028;-77
2023/02/19 01:53:44;;;;;;;1999.90;999.90;;;9.70;99.90;;;;;;5090930;28;20434;-81
2023/02/19 01:56:12;;;;;;;1999.90;999.90;;;9.80;99.90;;;;;;5092226;28;20484;-77
2023/02/19 01:58:38;;;;;;;1999.90;999.90;;;9.70;99.90;;;;;;5092031;28;20024;-81
2023/02/19 02:01:07;;;;;;;1999.90;999.90;;;9.70;99.90;;;;;;5090901;28;20575;-77
2023/02/19 02:03:34;;;;;;;1999.90;999.90;;;9.80;99.90;;;;;;5092332;28;20036;-77
2023/02/19 02:06:10;;;;;;;1999.90;999.90;;;9.80;99.90;;;;;;5092147;28;20028;-77
2023/02/19 02:11:20;;;;;;;1999.90;999.90;;;9.70;99.90;;;;;;5092080;28;20043;-77
2023/02/19 02:13:47;;;;;;;1999.90;999.90;;;9.70;99.90;;;;;;5092060;28;20024;-77
2023/02/19 02:16:24;;;;;;;1999.90;999.90;;;9.70;99.90;;;;;;5092039;28;20019;-77
2023/02/19 02:19:03;;;;;;;1999.90;999.90;;;9.70;99.90;;;;;;5091267;28;20016;-78
2023/02/19 02:21:47;;;;;;;1999.90;999.90;;;9.60;99.90;;;;;;5092324;28;20069;-77
2023/02/19 02:24:51;;;;;;;1999.90;999.90;;;9.60;99.90;;;;;;5091877;28;20451;-77
2023/02/19 02:27:42;;;;;;;1999.90;999.90;;;9.60;99.90;;;;;;5009912;28;20161;-77
2023/02/19 02:30:25;;;;;;;1999.90;999.90;;;9.60;99.90;;;;;;5009720;28;20033;-81
2023/02/19 02:33:15;;;;;;;1999.90;999.90;;;9.60;99.90;;;;;;5072001;28;20043;-77
2023/02/19 02:35:50;;;;;;;1999.90;999.90;;;9.60;99.90;;;;;;5091871;28;20039;-77
2023/02/19 02:38:19;;;;;;;1999.90;999.90;;;9.50;99.90;;;;;;5091449;28;20009;-81
2023/02/19 02:40:45;;;;;;;1999.90;999.90;;;9.50;99.90;;;;;;5091772;28;20039;-77
2023/02/19 02:43:12;;;;;;;1999.90;999.90;;;9.50;99.90;;;;;;5091724;28;20484;-77
2023/02/19 02:45:38;;;;;;;1999.90;999.90;;;9.50;99.90;;;;;;5089434;28;20139;-77
2023/02/19 02:48:19;;;;;;;1999.90;999.90;;;9.50;99.90;;;;;;5091712;28;20016;-77
2023/02/19 02:50:48;;;;;;;1999.90;999.90;;;9.50;99.90;;;;;;5091609;28;20435;-77
2023/02/19 02:56:09;;;;;;;1999.90;999.90;;;9.40;99.90;;;;;;5091574;28;20116;-77
2023/02/19 02:58:37;;;;;;;1999.90;999.90;;;9.40;99.90;;;;;;5091661;28;20104;-80
2023/02/19 03:04:05;;;;;;;1999.90;999.90;;;9.30;99.90;;;;;;5095483;28;20111;-77
2023/02/19 03:06:33;;;;;;;1999.90;999.90;;;9.30;99.90;;;;;;5093996;28;20447;-77
2023/02/19 03:09:17;;;;;;;1999.90;999.90;;;9.30;99.90;;;;;;5095161;28;20032;-77
2023/02/19 03:20:23;;;;;;;1999.90;999.90;;;9.20;99.90;;;;;;5094329;28;20082;-82
2023/02/19 03:22:51;;;;;;;1999.90;999.90;;;9.30;99.90;;;;;;5094876;28;20032;-81
2023/02/19 03:28:08;;;;;;;1999.90;999.90;;;9.30;99.90;;;;;;5094985;28;20125;-77
2023/02/19 03:30:40;;;;;;;1999.90;999.90;;;9.40;99.90;;;;;;5094717;28;20040;-81
2023/02/19 03:33:13;;;;;;;1999.90;999.90;;;9.30;99.90;;;;;;5094768;28;20530;-81
2023/02/19 03:36:06;;;;;;;1999.90;999.90;;;9.20;99.90;;;;;;5094638;28;20439;-77
2023/02/19 03:38:47;;;;;;;1999.90;999.90;;;9.20;99.90;;;;;;5091236;28;20024;-77
2023/02/19 03:41:22;;;;;;;1999.90;999.90;;;9.30;99.90;;;;;;5086572;28;20380;-77
2023/02/19 03:44:15;;;;;;;1999.90;999.90;;;9.30;99.90;;;;;;5072924;28;20382;-77
2023/02/19 03:46:55;;;;;;;1999.90;999.90;;;9.20;99.90;;;;;;5089367;28;20083;-78
2023/02/19 03:49:41;;;;;;;1999.90;999.90;;;9.10;99.90;;;;;;5094578;28;20036;-77
2023/02/19 03:52:26;;;;;;;1999.90;999.90;;;9.10;99.90;;;;;;5094338;28;20031;-77
2023/02/19 03:55:13;;;;;;;1999.90;999.90;;;9.10;99.90;;;;;;5093096;28;20036;-77
2023/02/19 03:58:01;;;;;;;1999.90;999.90;;;9.00;99.90;;;;;;5094462;28;20024;-77
2023/02/19 04:00:39;;;;;;;1999.90;999.90;;;9.00;99.90;;;;;;5094151;28;20024;-81
2023/02/19 04:03:32;;;;;;;1999.90;999.90;;;9.10;99.90;;;;;;5094170;28;20085;-77
2023/02/19 04:06:01;;;;;;;;;;;9.10;99.90;;;;;;5057650;28;20059;-77
2023/02/19 04:08:27;;;;;;;1999.90;999.90;;;9.10;99.90;;;;;;5093982;28;19920;-77
2023/02/19 04:10:54;;;;;;;1999.90;999.90;;;9.10;99.90;;;;;;5094114;28;20028;-81
2023/02/19 04:13:25;;;;;;;1999.90;999.90;;;9.10;99.90;;;;;;5093276;28;20027;-77
2023/02/19 04:15:53;;;;;;;1999.90;999.90;;;9.10;99.90;;;;;;5093966;28;20042;-77
2023/02/19 04:18:27;;;;;;;1999.90;999.90;;;9.10;99.90;;;;;;5093190;28;20374;-77
2023/02/19 04:20:53;;;;;;;1999.90;999.90;;;9.10;99.90;;;;;;5093372;28;20027;-77
2023/02/19 04:23:23;;;;;;;1999.90;999.90;;;9.10;99.90;;;;;;5093932;28;20413;-77
2023/02/19 04:25:53;;;;;;;1999.90;999.90;;;9.00;99.90;;;;;;5093914;28;20024;-77
2023/02/19 04:28:19;;;;;;;1999.90;999.90;;;9.00;99.90;;;;;;5093427;28;20024;-77
2023/02/19 04:30:45;;;;;;;1999.90;999.90;;;9.10;99.90;;;;;;5093773;28;20119;-81
2023/02/19 04:33:11;;;;;;;1999.90;999.90;;;9.00;99.90;;;;;;5093810;28;20045;-81
2023/02/19 04:35:37;;;;;;;1999.90;999.90;;;9.00;99.90;;;;;;5093692;28;20028;-81
2023/02/19 04:38:03;;;;;;;1999.90;999.90;;;9.10;99.90;;;;;;5093015;28;20077;-77
2023/02/19 04:40:28;;;;;;;1999.90;999.90;;;9.10;99.90;;;;;;5093339;28;20103;-77
2023/02/19 04:42:54;;;;;;;1999.90;999.90;;;9.10;99.90;;;;;;5093330;28;20523;-77
2023/02/19 04:45:19;;;;;;;1999.90;999.90;;;9.00;99.90;;;;;;5087627;28;20049;-77
2023/02/19 04:47:45;;;;;;;1999.90;999.90;;;9.10;99.90;;;;;;5073239;28;20036;-77
2023/02/19 04:50:11;;;;;;;1999.90;999.90;;;9.00;99.90;;;;;;5072859;28;20043;-77
2023/02/19 04:52:36;;;;;;;1999.90;999.90;;;9.00;99.90;;;;;;5072932;28;20085;-77
2023/02/19 04:55:02;;;;;;;1999.90;999.90;;;9.00;99.90;;;;;;5072862;28;20198;-81
2023/02/19 04:57:28;;;;;;;1999.90;999.90;;;9.00;99.90;;;;;;5072983;28;20033;-77
2023/02/19 04:59:53;;;;;;;1999.90;999.90;;;9.00;99.90;;;;;;5072799;28;20057;-78
2023/02/19 05:02:19;;;;;;;1999.90;999.90;;;9.00;99.90;;;;;;5088477;28;20039;-78
2023/02/19 05:04:44;;;;;;;1999.90;999.90;;;9.00;99.90;;;;;;5072821;28;20034;-78
2023/02/19 05:07:10;;;;;;;1999.90;999.90;;;9.00;99.90;;;;;;5073047;28;20036;-81
2023/02/19 05:09:36;;;;;;;1999.90;999.90;;;9.00;99.90;;;;;;5072673;28;20040;-81
2023/02/19 05:12:01;;;;;;;1999.90;999.90;;;9.00;99.90;;;;;;5072577;28;20086;-78
2023/02/19 05:14:27;;;;;;;1999.90;999.90;;;9.00;99.90;;;;;;5072437;28;20437;-78
2023/02/19 05:16:52;;;;;;;1999.90;999.90;;;9.00;99.90;;;;;;5072543;28;20516;-78
2023/02/19 05:19:18;;;;;;;1999.90;999.90;;;9.00;99.90;;;;;;5072594;28;20052;-78
2023/02/19 05:21:44;;;;;;;1999.90;999.90;;;8.90;99.90;;;;;;5072029;28;20024;-81
2023/02/19 05:24:09;;;;;;;1999.90;999.90;;;8.90;99.90;;;;;;5072332;28;20039;-78
2023/02/19 05:26:35;;;;;;;1999.90;999.90;;;9.00;99.90;;;;;;5072363;28;20029;-78
2023/02/19 05:29:01;;;;;;;1999.90;999.90;;;9.00;99.90;;;;;;5072277;28;20076;-78
2023/02/19 05:31:27;;;;;;;1999.90;999.90;;;9.00;99.90;;;;;;5072686;28;20503;-81
2023/02/19 05:33:55;;;;;;;1999.90;999.90;;;9.00;99.90;;;;;;5072226;28;20028;-78
2023/02/19 05:36:21;;;;;;;1999.90;999.90;;;9.00;99.90;;;;;;5072441;28;20029;-78
2023/02/19 05:38:50;;;;;;;1999.90;999.90;;;8.90;99.90;;;;;;5083202;28;20039;-81
2023/02/19 05:41:18;;;;;;;1999.90;999.90;;;9.00;99.90;;;;;;5092605;28;20112;-78
2023/02/19 05:43:46;;;;;;;1999.90;999.90;;;9.00;99.90;;;;;;5092650;28;20081;-78
2023/02/19 05:46:13;;;;;;;1999.90;999.90;;;9.00;99.90;;;;;;5090139;28;20048;-78
2023/02/19 05:48:39;;;;;;;1999.90;999.90;;;8.90;99.90;;;;;;5092257;28;20020;-78
2023/02/19 05:51:07;;;;;;;1999.90;999.90;;;8.90;99.90;;;;;;5090928;28;20500;-78
2023/02/19 05:53:33;;;;;;;1999.90;999.90;;;8.90;99.90;;;;;;5092508;28;20032;-78
2023/02/19 05:55:59;;;;;;;1999.90;999.90;;;9.00;99.90;;;;;;5092231;28;20063;-78
2023/02/19 05:58:26;;;;;;;1999.90;999.90;;;9.00;99.90;;;;;;5092244;28;20480;-78
2023/02/19 06:00:52;;;;;;;1999.90;999.90;;;9.00;99.90;;;;;;5090962;28;20369;-78
2023/02/19 06:03:18;;;;;;;1999.90;999.90;;;9.00;99.90;;;;;;5092267;28;20111;-78
2023/02/19 06:05:43;;;;;;;1999.90;999.90;;;9.00;99.90;;;;;;5092315;28;20606;-78
2023/02/19 06:08:12;;;;;;;1999.90;999.90;;;9.00;99.90;;;;;;5090583;28;20131;-78
2023/02/19 06:10:40;;;;;;;1999.90;999.90;;;9.00;99.90;;;;;;5091357;28;20035;-82
2023/02/19 06:13:06;;;;;;;1999.90;999.90;;;8.90;99.90;;;;;;5091861;28;20499;-78
2023/02/19 06:15:32;;;;;;;1999.90;999.90;;;8.90;99.90;;;;;;5092342;28;20016;-78
2023/02/19 06:17:58;;;;;;;1999.90;999.90;;;8.90;99.90;;;;;;5092014;28;20504;-78
2023/02/19 06:20:23;;;;;;;1999.90;999.90;;;8.90;99.90;;;;;;5091988;28;20493;-78
2023/02/19 06:22:50;;;;;;;1999.90;999.90;;;8.90;99.90;;;;;;5091289;28;20028;-78
2023/02/19 06:25:16;;;;;;;1999.90;999.90;;;8.90;99.90;;;;;;5092036;28;20020;-78
2023/02/19 06:27:42;;;;;;;1999.90;999.90;;;8.80;99.90;;;;;;5090691;28;20059;-78
2023/02/19 06:30:08;;;;;;;1999.90;999.90;;;8.80;99.90;;;;;;5091857;28;20055;-78
2023/02/19 06:32:34;;;;;;;1999.90;999.90;;;8.80;99.90;;;;;;5091903;28;20020;-78
2023/02/19 06:35:00;;;;;;;1999.90;999.90;;;8.90;99.90;;;;;;5091923;28;20074;-78
2023/02/19 06:37:25;;;;;;;1999.90;999.90;;;8.90;99.90;;;;;;5075323;28;20017;-82
2023/02/19 06:39:51;;;;;;;1999.90;999.90;;;8.80;99.90;;;;;;5075309;28;20432;-81
2023/02/19 06:42:17;;;;;;;1999.90;999.90;;;8.80;99.90;;;;;;5075490;28;20028;-78
2023/02/19 06:44:42;;;;;;;1999.90;999.90;;;8.70;99.90;;;;;;5075331;28;20029;-81
2023/02/19 06:47:08;;;;;;;1999.90;999.90;;;8.70;99.90;;;;;;5094494;28;20055;-77
2023/02/19 06:49:33;;;;;;;1999.90;999.90;;;8.80;99.90;;;;;;5095399;28;20488;-77
2023/02/19 06:52:00;;;;;;;1999.90;999.90;;;8.80;99.90;;;;;;5094198;28;20028;-77
2023/02/19 06:54:26;;;;;;;1999.90;999.90;;;8.80;99.90;;;;;;5095289;28;20484;-77
2023/02/19 06:56:52;;;;;;;1999.90;999.90;;;8.80;99.90;;;;;;5095726;28;20099;-77
2023/02/19 06:59:17;;;;;;;1999.90;999.90;;;8.80;99.90;;;;;;5094263;28;20024;-77
2023/02/19 07:01:44;;;;;;;1999.90;999.90;;;8.90;99.90;;;;;;5095823;28;20158;-81
2023/02/19 07:04:10;;;;;;;1999.90;999.90;;;8.90;99.90;;;;;;5095305;28;20051;-81
2023/02/19 07:06:36;;;;;;;1999.90;999.90;;;8.90;99.90;;;;;;5095440;28;20110;-77
2023/02/19 07:09:04;;;;;;;1999.90;999.90;;;8.90;99.90;;;;;;5095204;28;20032;-77
2023/02/19 07:11:32;;;;;;;1999.90;999.90;;;8.90;99.90;;;;;;5094097;28;20462;-77
2023/02/19 07:14:00;;;;;;;1999.90;999.90;;;8.90;99.90;;;;;;5095109;28;20086;-77
2023/02/19 07:16:26;;;;;;;1999.90;999.90;;;8.90;99.90;;;;;;5094573;28;20030;-81
2023/02/19 07:18:52;;;;;;;1999.90;999.90;;;8.90;99.90;;;;;;5095017;28;20020;-77
2023/02/19 07:21:18;;;;;;;1999.90;999.90;;;8.90;99.90;;;;;;5095205;28;20759;-77
2023/02/19 07:23:44;;;;;;;1999.90;999.90;;;8.90;99.90;;;;;;5094411;28;20030;-77
2023/02/19 07:26:15;;;;;;;1999.90;999.90;;;8.90;99.90;;;;;;5094899;28;20028;-77
2023/02/19 07:28:46;;;;;;;1999.90;999.90;;;9.00;99.90;;;;;;5094763;28;20481;-77
2023/02/19 07:31:12;;;;;;;1999.90;999.90;;;9.00;99.90;;;;;;5094973;28;20032;-77
2023/02/19 07:33:38;;;;;;;1999.90;999.90;;;9.00;99.90;;;;;;5095116;28;20527;-77
2023/02/19 07:36:06;;;;;;;1999.90;999.90;;;9.00;99.90;;;;;;5094786;28;20048;-77
2023/02/19 07:38:32;;;;;;;1999.90;999.90;;;9.00;99.90;;;;;;5094442;28;20012;-77
2023/02/19 07:41:00;;;;;;;1999.90;999.90;;;9.10;99.90;;;;;;5094693;28;20024;-81
2023/02/19 07:43:30;;;;;;;1999.90;999.90;;;9.10;99.90;;;;;;5094942;28;20024;-77
2023/02/19 07:45:56;;;;;;;1999.90;999.90;;;9.10;99.90;;;;;;5092845;28;20060;-77
2023/02/19 07:48:22;;;;;;;1999.90;999.90;;;9.10;99.90;;;;;;5093405;28;20024;-77
2023/02/19 07:50:55;;;;;;;1999.90;999.90;;;9.20;99.90;;;;;;5094607;28;20039;-77
2023/02/19 07:53:22;;;;;;;1999.90;999.90;;;9.20;99.90;;;;;;5094501;28;20114;-77
2023/02/19 07:55:48;;;;;;;1999.90;999.90;;;9.20;99.90;;;;;;5094621;28;20024;-81
2023/02/19 07:58:14;;;;;;;1999.90;999.90;;;9.20;99.90;;;;;;5094546;28;20027;-77
2023/02/19 08:00:40;;;;;;;1999.90;999.90;;;9.20;99.90;;;;;;5094444;28;20388;-77
2023/02/19 08:03:05;;;;;;;1999.90;999.90;;;9.20;99.90;;;;;;5094716;28;20028;-77
2023/02/19 08:05:35;;;;;;;1999.90;999.90;;;9.20;99.90;;;;;;5094498;28;20115;-77
2023/02/19 08:08:01;;;;;;;1999.90;999.90;;;9.30;99.90;;;;;;5094183;28;20032;-77
2023/02/19 08:13:21;;;;;;;1999.90;999.90;;;9.30;99.90;;;;;;5094301;28;20534;-77
2023/02/19 08:16:08;;;;;;;1999.90;999.90;;;9.30;99.90;;;;;;5094300;28;20028;-78
2023/02/19 08:18:33;;;;;;;1999.90;999.90;;;9.40;99.90;;;;;;5093931;28;20138;-77
2023/02/19 08:21:00;;;;;;;1999.90;999.90;;;9.40;99.90;;;;;;5093950;28;20115;-77
2023/02/19 08:23:26;;;;;;;1999.90;999.90;;;9.40;99.90;;;;;;5093670;28;20442;-77
2023/02/19 08:25:55;;;;;;;1999.90;999.90;;;9.40;99.90;;;;;;5094064;28;20024;-77
2023/02/19 08:28:21;;;;;;;1999.90;999.90;;;9.50;99.90;;;;;;5093768;28;20039;-77
2023/02/19 08:30:46;;;;;;;1999.90;999.90;;;9.50;99.90;;;;;;5093762;28;20032;-77
2023/02/19 08:33:14;;;;;;;1999.90;999.90;;;9.50;99.90;;;;;;5094032;28;20499;-77
2023/02/19 08:35:41;;;;;;;1999.90;999.90;;;9.40;99.90;;;;;;5093911;28;20435;-78
2023/02/19 08:38:08;;;;;;;1999.90;999.90;;;9.50;99.90;;;;;;5093390;28;20097;-79
2023/02/19 08:40:35;;;;;;;1999.90;999.90;;;9.60;99.90;;;;;;5093586;28;20032;-83
2023/02/19 08:43:12;;;;;;;1999.90;999.90;;;9.60;99.90;;;;;;5092157;28;20047;-79
2023/02/19 08:45:40;;;;;;;1999.90;999.90;;;9.60;99.90;;;;;;5091413;28;20044;-79
2023/02/19 08:48:07;;;;;;;1999.90;999.90;;;9.50;99.90;;;;;;5093449;28;20024;-79
2023/02/19 08:50:33;;;;;;;1999.90;999.90;;;9.60;99.90;;;;;;5093295;28;20035;-79
2023/02/19 08:53:00;;;;;;;1999.90;999.90;;;9.60;99.90;;;;;;5093038;28;20016;-79
2023/02/19 08:55:26;;;;;;;1999.90;999.90;;;9.70;99.90;;;;;;5093204;28;20042;-83
2023/02/19 08:57:52;;;;;;;1999.90;999.90;;;9.70;99.90;;;;;;5093415;28;20373;-79
2023/02/19 09:00:18;;;;;;;1999.90;999.90;;;9.80;99.90;;;;;;5092689;28;20023;-79
2023/02/19 09:02:43;;;;;;;1999.90;999.90;;;9.70;99.90;;;;;;5093181;28;20409;-80
2023/02/19 09:05:12;;;;;;;1999.90;999.90;;;9.70;99.90;;;;;;5093018;28;20477;-79
2023/02/19 09:07:38;;;;;;;1999.90;999.90;;;9.80;99.90;;;;;;5093471;28;20024;-79
2023/02/19 09:10:05;;;;;;;1999.90;999.90;;;9.90;99.90;;;;;;5091435;28;20035;-77
2023/02/19 09:12:32;;;;;;;1999.90;999.90;;;9.90;99.90;;;;;;5092784;28;20016;-77
2023/02/19 09:14:58;;;;;;;1999.90;999.90;;;9.90;99.90;;;;;;5092892;28;20035;-81
2023/02/19 09:17:23;;;;;;;1999.90;999.90;;;10.00;99.90;;;;;;5092963;28;20024;-77
2023/02/19 09:19:49;;;;;;;1999.90;999.90;;;10.00;99.90;;;;;;5092848;28;20024;-77
2023/02/19 09:22:15;;;;;;;1999.90;999.90;;;10.10;99.90;;;;;;5092767;28;20016;-81
2023/02/19 09:24:42;;;;;;;1999.90;999.90;;;10.10;99.90;;;;;;5092025;28;20035;-77
2023/02/19 09:27:15;;;;;;;1999.90;999.90;;;10.00;99.90;;;;;;5092654;28;20028;-77
2023/02/19 09:29:41;;;;;;;1999.90;999.90;;;10.10;99.90;;;;;;5092940;28;20538;-82
2023/02/19 09:32:06;;;;;;;1999.90;999.90;;;10.10;99.90;;;;;;5092592;28;20067;-81
2023/02/19 09:34:32;;;;;;;1999.90;999.90;;;10.10;99.90;;;;;;5091070;28;20032;-77
2023/02/19 09:36:57;;;;;;;1999.90;999.90;;;10.10;99.90;;;;;;5092505;28;20046;-77
2023/02/19 09:39:23;;;;;;;1999.90;999.90;;;10.20;99.90;;;;;;5092216;28;20477;-77
2023/02/19 09:41:54;;;;;;;1999.90;999.90;;;10.30;99.90;;;;;;5092528;28;20020;-78
2023/02/19 09:44:29;;;;;;;1999.90;999.90;;;10.30;99.90;;;;;;5092452;28;20135;-81
2023/02/19 09:46:55;;;;;;;1999.90;999.90;;;10.40;99.90;;;;;;5091760;28;20150;-81
2023/02/19 09:49:38;;;;;;;1999.90;999.90;;;10.40;99.90;;;;;;5092548;28;20527;-77
2023/02/19 09:52:10;;;;;;;1999.90;999.90;;;10.40;99.90;;;;;;5092350;28;20460;-81
2023/02/19 09:54:37;;;;;;;1999.90;999.90;;;10.40;99.90;;;;;;5092117;28;20277;-81
2023/02/19 09:57:04;;;;;;;1999.90;999.90;;;10.50;99.90;;;;;;5092138;28;20030;-77
2023/02/19 09:59:43;;;;;;;1999.90;999.90;;;10.50;99.90;;;;;;5090986;28;20024;-77
2023/02/19 10:02:20;;;;;;;1999.90;999.90;;;10.50;99.90;;;;;;5092205;28;20110;-77
2023/02/19 10:04:49;;;;;;;1999.90;999.90;;;10.50;99.90;;;;;;5092135;28;20038;-77
2023/02/19 10:07:19;;;;;;;1999.90;999.90;;;10.60;99.90;;;;;;5092626;28;20028;-81
2023/02/19 10:09:50;;;;;;;1999.90;999.90;;;10.70;99.90;;;;;;5091888;28;20054;-77
2023/02/19 10:12:22;;;;;;;1999.90;999.90;;;10.80;99.90;;;;;;5091655;28;20412;-81
2023/02/19 10:14:51;;;;;;;1999.90;999.90;;;10.80;99.90;;;;;;5092081;28;20060;-77
2023/02/19 10:17:24;;;;;;;1999.90;999.90;;;10.90;99.90;;;;;;5107640;28;20023;-81
2023/02/19 10:19:51;;;;;;;1999.90;999.90;;;10.90;99.90;;;;;;5111999;28;20021;-77
2023/02/19 10:22:18;;;;;;;1999.90;999.90;;;10.90;99.90;;;;;;5110859;28;20031;-77
2023/02/19 10:24:45;;;;;;;1999.90;999.90;;;11.00;99.90;;;;;;5111713;28;20028;-77
2023/02/19 10:27:14;;;;;;;1999.90;999.90;;;11.00;99.90;;;;;;5112294;28;20028;-77
2023/02/19 10:29:42;;;;;;;1999.90;999.90;;;11.00;99.90;;;;;;5111664;28;20046;-77
2023/02/19 10:32:23;;;;;;;1999.90;999.90;;;11.00;99.90;;;;;;5111225;28;20024;-78
2023/02/19 10:35:13;;;;;;;1999.90;999.90;;;11.10;99.90;;;;;;5111955;28;20508;-77
2023/02/19 10:37:45;;;;;;;1999.90;999.90;;;11.20;99.90;;;;;;5110079;28;20044;-78
2023/02/19 10:40:19;;;;;;;1999.90;999.90;;;11.40;99.90;;;;;;5091675;28;20020;-77
2023/02/19 10:42:51;;;;;;;1999.90;999.90;;;11.40;99.90;;;;;;5089989;28;20024;-77
2023/02/19 10:45:32;;;;;;;1999.90;999.90;;;11.50;99.90;;;;;;5089631;28;20016;-78
2023/02/19 10:47:58;;;;;;;1999.90;999.90;;;11.60;99.90;;;;;;5091823;28;20028;-78
2023/02/19 10:50:29;;;;;;;1999.90;999.90;;;11.70;99.90;;;;;;5091694;28;20027;-80
2023/02/19 10:52:57;;;;;;;1999.90;999.90;;;11.70;99.90;;;;;;5091841;28;20477;-80
2023/02/19 10:55:25;;;;;;;1999.90;999.90;;;11.70;99.90;;;;;;5092016;28;20020;-78
2023/02/19 10:57:51;;;;;;;1999.90;999.90;;;11.70;99.90;;;;;;5090622;28;20146;-78
2023/02/19 11:00:26;;;;;;;1999.90;999.90;;;11.80;99.90;;;;;;5090701;28;20103;-78
2023/02/19 11:03:19;;;;;;;1999.90;999.90;;;11.80;99.90;;;;;;5091412;28;20028;-77
2023/02/19 11:06:01;;;;;;;1999.90;999.90;;;11.90;99.90;;;;;;5088862;28;20485;-82
2023/02/19 11:08:28;;;;;;;1999.90;999.90;;;11.90;99.90;;;;;;5073258;28;20520;-77
2023/02/19 11:10:53;;;;;;;1999.90;999.90;;;11.90;99.90;;;;;;5091468;28;20032;-78
2023/02/19 11:13:29;;;;;;;1999.90;999.90;;;12.00;99.90;;;;;;5091347;28;20036;-81
2023/02/19 11:15:55;;;;;;;1999.90;999.90;;;12.10;99.90;;;;;;5091431;28;20012;-77
2023/02/19 11:18:23;;;;;;;1999.90;999.90;;;12.20;99.90;;;;;;5090697;28;20469;-80
2023/02/19 11:20:55;;;;;;;1999.90;999.90;;;12.20;99.90;;;;;;5073122;28;20031;-80
2023/02/19 11:23:28;;;;;;;1999.90;999.90;;;12.20;99.90;;;;;;5094615;28;20520;-80
2023/02/19 11:25:56;;;;;;;1999.90;999.90;;;12.10;99.90;;;;;;5094336;28;20103;-83
2023/02/19 11:28:35;;;;;;;1999.90;999.90;;;12.20;99.90;;;;;;5094839;28;20408;-80
2023/02/19 11:31:26;;;;;;;1999.90;999.90;;;12.10;99.90;;;;;;5094892;28;20488;-80
2023/02/19 11:33:56;;;;;;;1999.90;999.90;;;12.10;99.90;;;;;;5083282;28;20144;-80
2023/02/19 11:36:33;;;;;;;1999.90;999.90;;;12.20;99.90;;;;;;5094516;28;20020;-83
2023/02/19 11:39:13;;;;;;;1999.90;999.90;;;12.20;99.90;;;;;;5076178;28;20024;-80
2023/02/19 11:41:58;;;;;;;1999.90;999.90;;;12.30;99.90;;;;;;5094836;28;20059;-80
2023/02/19 11:44:47;;;;;;;1999.90;999.90;;;12.40;99.90;;;;;;5094675;28;20080;-80
2023/02/19 11:47:25;;;;;;;1999.90;999.90;;;12.40;99.90;;;;;;5094032;28;20062;-83
2023/02/19 11:50:24;;;;;;;1999.90;999.90;;;12.50;99.90;;;;;;5094685;28;20095;-80
2023/02/19 11:53:19;;;;;;;1999.90;999.90;;;12.50;99.90;;;;;;5094340;28;20052;-80
2023/02/19 11:55:59;;;;;;;1999.90;999.90;;;12.70;99.90;;;;;;5072472;28;20032;-80
2023/02/19 11:58:46;;;;;;;1999.90;999.90;;;12.60;99.90;;;;;;5094429;28;20016;-80
2023/02/19 12:01:27;;;;;;;1999.90;999.90;;;12.40;99.90;;;;;;5094358;28;20028;-83
2023/02/19 12:04:02;;;;;;;1999.90;999.90;;;12.60;99.90;;;;;;5094416;28;20484;-80
2023/02/19 12:06:59;;;;;;;1999.90;999.90;;;12.50;99.90;;;;;;5094332;28;20049;-80
2023/02/19 12:09:40;;;;;;;1999.90;999.90;;;12.60;99.90;;;;;;5059864;28;20393;-84
2023/02/19 12:12:24;;;;;;;1999.90;999.90;;;12.50;99.90;;;;;;5093909;28;20051;-80
2023/02/19 12:14:55;;;;;;;1999.90;999.90;;;12.50;99.90;;;;;;5093963;28;20031;-83
2023/02/19 12:17:38;;;;;;;1999.90;999.90;;;12.60;99.90;;;;;;5075998;28;20032;-80
2023/02/19 12:20:33;;;;;;;1999.90;999.90;;;12.70;99.90;;;;;;5094124;28;20484;-80
2023/02/19 12:23:02;;;;;;;1999.90;999.90;;;12.70;99.90;;;;;;5093851;28;20116;-80
2023/02/19 12:25:56;;;;;;;1999.90;999.90;;;12.60;99.90;;;;;;5093464;28;20082;-80
2023/02/19 12:28:32;;;;;;;1999.90;999.90;;;12.80;99.90;;;;;;5054166;28;20111;-80
2023/02/19 12:31:20;;;;;;;1999.90;999.90;;;12.90;99.90;;;;;;5075505;28;20027;-80
2023/02/19 12:33:52;;;;;;;1999.90;999.90;;;12.90;99.90;;;;;;5093252;28;20035;-83
2023/02/19 12:36:46;;;;;;;1999.90;999.90;;;13.10;99.90;;;;;;5092917;28;20111;-80
2023/02/19 12:39:41;;;;;;;1999.90;999.90;;;13.00;99.90;;;;;;5041776;28;20316;-83
2023/02/19 12:42:39;;;;;;;1999.90;999.90;;;13.00;99.90;;;;;;5055120;28;20451;-80
2023/02/19 12:45:17;;;;;;;1999.90;999.90;;;13.00;99.90;;;;;;5079960;28;20028;-80